createdAt,value
2019-02-15T00:01:35.431Z,13.13
2019-02-15T00:04:03.907Z,12.97
2019-02-15T00:06:32.114Z,12.50
2019-02-15T00:09:00.261Z,13.90
2019-02-15T00:11:28.663Z,12.80
2019-02-15T00:13:56.794Z,12.83
2019-02-15T00:16:44.436Z,12.67
2019-02-15T00:19:17.067Z,12.20
2019-02-15T00:21:45.243Z,12.87
2019-02-15T00:24:13.623Z,13.23
2019-02-15T00:27:01.094Z,12.20
2019-02-15T00:32:30.805Z,12.10
2019-02-15T00:35:18.293Z,12.60
2019-02-15T00:37:46.741Z,11.80
2019-02-15T00:40:14.908Z,11.80
2019-02-15T00:43:02.519Z,11.80
2019-02-15T00:57:43.120Z,11.63
2019-02-15T01:00:15.453Z,11.63
2019-02-15T01:03:03.050Z,12.50
2019-02-15T01:05:56.078Z,11.93
2019-02-15T01:08:26.099Z,11.37
2019-02-15T01:11:33.124Z,11.60
2019-02-15T01:14:02.131Z,12.33
2019-02-15T01:16:30.327Z,12.93
2019-02-15T01:19:18.000Z,11.87
2019-02-15T01:21:46.288Z,11.87
2019-02-15T01:24:14.442Z,12.10
2019-02-15T01:27:03.746Z,13.23
2019-02-15T01:29:51.278Z,11.20
2019-02-15T01:32:38.809Z,12.17
2019-02-15T01:35:26.217Z,11.60
2019-02-15T01:46:34.167Z,11.37
2019-02-15T01:49:02.278Z,11.73
2019-02-15T01:51:49.943Z,11.90
2019-02-15T01:54:18.077Z,11.87
2019-02-15T01:57:05.565Z,11.10
2019-02-15T01:59:33.755Z,11.10
2019-02-15T02:02:22.886Z,12.47
2019-02-15T02:05:10.542Z,12.40
2019-02-15T02:07:38.709Z,11.93
2019-02-15T02:10:27.679Z,11.33
2019-02-15T02:12:56.198Z,11.77
2019-02-15T02:15:43.748Z,11.83
2019-02-15T02:18:12.048Z,11.27
2019-02-15T02:21:01.006Z,12.10
2019-02-15T02:26:03.000Z,11.13
2019-02-15T02:28:31.331Z,11.60
2019-02-15T02:30:59.502Z,11.17
2019-02-15T02:33:27.816Z,10.97
2019-02-15T02:35:56.037Z,10.87
2019-02-15T02:38:24.175Z,11.13
2019-02-15T02:40:52.375Z,11.20
2019-02-15T02:43:20.521Z,11.40
2019-02-15T02:46:08.046Z,11.90
2019-02-15T02:48:36.189Z,11.70
2019-02-15T02:51:23.713Z,11.03
2019-02-15T02:53:51.869Z,10.63
2019-02-15T02:56:20.020Z,10.63
2019-02-15T02:58:48.197Z,11.10
2019-02-15T03:01:16.341Z,10.77
2019-02-15T03:03:44.481Z,9.67
2019-02-15T03:06:12.638Z,10.47
2019-02-15T03:08:40.782Z,10.83
2019-02-15T03:11:08.930Z,10.57
2019-02-15T03:13:37.261Z,11.23
2019-02-15T03:16:05.421Z,11.37
2019-02-15T03:18:53.073Z,11.03
2019-02-15T03:21:21.322Z,11.03
2019-02-15T03:24:09.211Z,11.17
2019-02-15T03:26:37.407Z,11.83
2019-02-15T03:29:05.553Z,11.43
2019-02-15T03:31:53.167Z,11.63
2019-02-15T03:34:21.321Z,11.17
2019-02-15T03:40:06.449Z,11.87
2019-02-15T03:42:34.614Z,11.50
2019-02-15T03:45:03.083Z,11.87
2019-02-15T03:47:31.267Z,11.33
2019-02-15T03:49:59.413Z,12.90
2019-02-15T03:52:27.609Z,12.00
2019-02-15T03:55:15.222Z,11.67
2019-02-15T03:58:02.783Z,11.37
2019-02-15T04:03:32.520Z,10.80
2019-02-15T04:06:00.665Z,11.13
2019-02-15T04:08:28.813Z,11.57
2019-02-15T04:10:57.196Z,10.63
2019-02-15T04:13:25.344Z,11.03
2019-02-15T04:16:12.978Z,10.70
2019-02-15T04:18:41.113Z,11.07
2019-02-15T04:21:09.257Z,11.30
2019-02-15T04:23:37.659Z,11.70
2019-02-15T04:26:05.855Z,10.77
2019-02-15T04:28:34.096Z,10.67
2019-02-15T04:31:02.390Z,11.90
2019-02-15T04:33:49.877Z,10.37
2019-02-15T04:39:45.110Z,10.27
2019-02-15T04:45:25.940Z,11.17
2019-02-15T04:47:54.102Z,11.23
2019-02-15T04:50:41.678Z,10.43
2019-02-15T04:53:09.811Z,10.23
2019-02-15T04:55:37.958Z,11.17
2019-02-15T04:58:06.262Z,10.63
2019-02-15T05:00:34.410Z,10.87
2019-02-15T05:03:02.601Z,10.70
2019-02-15T05:05:30.783Z,12.07
2019-02-15T05:07:58.942Z,12.20
2019-02-15T05:10:27.098Z,11.70
2019-02-15T05:12:55.319Z,10.63
2019-02-15T05:15:23.501Z,10.70
2019-02-15T05:18:11.135Z,10.60
2019-02-15T05:20:39.293Z,10.77
2019-02-15T05:23:07.535Z,10.30
2019-02-15T05:25:35.906Z,10.20
2019-02-15T05:28:04.085Z,10.30
2019-02-15T05:30:32.293Z,10.73
2019-02-15T05:33:00.478Z,9.87
2019-02-15T05:35:28.671Z,10.50
2019-02-15T05:37:56.821Z,10.50
2019-02-15T05:40:25.149Z,11.57
2019-02-15T05:42:53.310Z,10.53
2019-02-15T05:45:40.955Z,11.70
2019-02-15T05:48:09.199Z,11.37
2019-02-15T05:50:37.413Z,11.20
2019-02-15T05:53:06.048Z,11.10
2019-02-15T05:55:53.602Z,10.53
2019-02-15T05:58:22.494Z,11.37
2019-02-15T06:00:50.616Z,10.43
2019-02-15T06:03:18.747Z,11.07
2019-02-15T06:05:47.101Z,10.27
2019-02-15T06:08:15.404Z,10.43
2019-02-15T06:10:43.615Z,11.53
2019-02-15T06:13:11.849Z,10.37
2019-02-15T06:15:40.048Z,11.63
2019-02-15T06:18:08.288Z,11.17
2019-02-15T06:20:36.549Z,10.60
2019-02-15T06:23:04.694Z,10.70
2019-02-15T06:25:32.843Z,10.77
2019-02-15T06:28:01.083Z,10.87
2019-02-15T06:30:48.611Z,12.63
2019-02-15T06:33:17.148Z,12.10
2019-02-15T06:36:04.635Z,11.60
2019-02-15T06:38:35.034Z,11.17
2019-02-15T06:41:03.072Z,11.67
2019-02-15T06:43:31.252Z,12.40
2019-02-15T06:45:59.433Z,11.13
2019-02-15T06:48:46.973Z,11.00
2019-02-15T06:51:15.550Z,11.77
2019-02-15T06:53:43.757Z,12.20
2019-02-15T06:56:11.925Z,12.07
2019-02-15T06:58:45.584Z,11.47
2019-02-15T07:04:03.534Z,12.87
2019-02-15T07:06:31.701Z,11.63
2019-02-15T07:09:19.253Z,11.40
2019-02-15T07:11:47.425Z,11.50
2019-02-15T07:14:15.674Z,11.57
2019-02-15T07:16:43.948Z,10.83
2019-02-15T07:19:12.076Z,11.17
2019-02-15T07:21:59.723Z,11.50
2019-02-15T07:24:27.944Z,11.77
2019-02-15T07:26:56.073Z,12.57
2019-02-15T07:29:24.287Z,11.07
2019-02-15T07:31:52.460Z,11.50
2019-02-15T07:34:40.136Z,11.17
2019-02-15T07:37:08.376Z,12.63
2019-02-15T07:39:36.584Z,11.17
2019-02-15T07:42:04.960Z,11.57
2019-02-15T07:44:52.453Z,11.77
2019-02-15T07:47:20.706Z,11.43
2019-02-15T07:50:08.262Z,11.47
2019-02-15T07:52:36.990Z,11.90
2019-02-15T07:55:24.471Z,11.33
2019-02-15T07:57:52.866Z,12.20
2019-02-15T08:00:21.034Z,11.53
2019-02-15T08:02:49.196Z,11.00
2019-02-15T08:05:17.361Z,10.43
2019-02-15T08:07:45.572Z,11.00
2019-02-15T08:10:13.726Z,11.93
2019-02-15T08:12:42.268Z,11.20
2019-02-15T08:15:10.708Z,11.60
2019-02-15T08:17:38.851Z,11.67
2019-02-15T08:20:10.754Z,11.23
2019-02-15T08:22:38.906Z,12.03
2019-02-15T08:25:07.507Z,11.00
2019-02-15T08:27:35.876Z,11.10
2019-02-15T08:30:05.026Z,11.47
2019-02-15T08:32:34.595Z,10.90
2019-02-15T08:35:03.067Z,11.40
2019-02-15T08:37:31.238Z,10.70
2019-02-15T08:39:59.387Z,11.53
2019-02-15T08:42:27.663Z,11.73
2019-02-15T08:44:55.820Z,11.47
2019-02-15T08:47:23.996Z,11.50
2019-02-15T08:49:52.495Z,11.53
2019-02-15T08:52:20.643Z,12.13
2019-02-15T08:54:48.824Z,12.10
2019-02-15T08:57:17.123Z,12.77
2019-02-15T08:59:45.342Z,12.53
2019-02-15T09:02:17.609Z,12.30
2019-02-15T09:04:45.895Z,13.00
2019-02-15T09:07:14.028Z,13.00
2019-02-15T09:09:42.178Z,13.43
2019-02-15T09:12:10.481Z,14.57
2019-02-15T09:14:38.681Z,14.07
2019-02-15T09:17:06.822Z,14.10
2019-02-15T09:19:35.003Z,14.67
2019-02-15T09:22:03.142Z,13.37
2019-02-15T09:24:31.294Z,14.07
2019-02-15T09:27:01.162Z,14.30
2019-02-15T09:29:29.359Z,14.20
2019-02-15T09:31:57.604Z,14.27
2019-02-15T09:34:25.775Z,14.53
2019-02-15T09:36:53.914Z,14.87
2019-02-15T09:39:22.057Z,14.97
2019-02-15T09:41:50.511Z,15.83
2019-02-15T09:44:18.716Z,16.17
2019-02-15T09:46:46.892Z,16.27
2019-02-15T09:49:15.229Z,16.90
2019-02-15T09:51:43.382Z,16.30
2019-02-15T09:54:11.521Z,16.90
2019-02-15T09:56:39.894Z,17.20
2019-02-15T09:59:08.147Z,16.70
2019-02-15T10:01:36.390Z,16.00
2019-02-15T10:04:04.646Z,16.43
2019-02-15T10:06:32.802Z,17.50
2019-02-15T10:09:00.951Z,16.97
2019-02-15T10:11:29.387Z,16.30
2019-02-15T10:13:57.562Z,16.57
2019-02-15T10:16:29.726Z,16.93
2019-02-15T10:18:55.614Z,16.87
2019-02-15T10:21:23.797Z,16.63
2019-02-15T10:23:51.938Z,16.15
2019-02-15T10:26:20.439Z,16.23
2019-02-15T10:28:48.609Z,15.58
2019-02-15T10:31:16.760Z,15.63
2019-02-15T10:33:45.045Z,16.07
2019-02-15T10:36:13.311Z,17.27
2019-02-15T10:38:41.527Z,16.50
2019-02-15T10:41:10.030Z,16.93
2019-02-15T10:43:38.180Z,17.42
2019-02-15T10:46:06.455Z,18.65
2019-02-15T10:48:34.938Z,17.30
2019-02-15T10:51:03.142Z,16.82
2019-02-15T10:53:31.425Z,17.30
2019-02-15T10:56:01.492Z,16.87
2019-02-15T10:58:31.769Z,17.52
2019-02-15T11:00:59.983Z,17.52
2019-02-15T11:03:28.169Z,15.95
2019-02-15T11:05:56.336Z,16.77
2019-02-15T11:08:24.469Z,16.37
2019-02-15T11:10:52.859Z,17.20
2019-02-15T11:13:21.039Z,17.00
2019-02-15T11:15:49.242Z,16.65
2019-02-15T11:18:17.434Z,17.20
2019-02-15T11:20:45.616Z,16.57
2019-02-15T11:23:13.832Z,15.93
2019-02-15T11:25:42.433Z,15.97
2019-02-15T11:28:10.582Z,17.32
2019-02-15T11:30:38.739Z,16.45
2019-02-15T11:33:06.961Z,16.55
2019-02-15T11:35:35.129Z,16.55
2019-02-15T11:38:03.342Z,17.37
2019-02-15T11:40:31.683Z,16.37
2019-02-15T11:42:59.890Z,17.07
2019-02-15T11:45:28.038Z,17.15
2019-02-15T11:47:56.408Z,16.35
2019-02-15T11:50:24.555Z,16.87
2019-02-15T11:52:52.732Z,16.83
2019-02-15T11:55:21.039Z,16.55
2019-02-15T11:57:49.248Z,15.55
2019-02-15T12:00:23.184Z,17.35
2019-02-15T12:02:51.460Z,17.20
2019-02-15T12:05:19.696Z,16.42
2019-02-15T12:07:47.886Z,16.70
2019-02-15T12:10:16.151Z,16.52
2019-02-15T12:12:44.317Z,16.67
2019-02-15T12:15:12.463Z,17.97
2019-02-15T12:17:40.810Z,17.02
2019-02-15T12:20:15.096Z,15.58
2019-02-15T12:22:43.398Z,16.95
2019-02-15T12:25:11.542Z,16.40
2019-02-15T12:27:39.739Z,16.87
2019-02-15T12:30:09.677Z,16.57
2019-02-15T12:32:37.810Z,16.13
2019-02-15T12:35:06.623Z,15.93
2019-02-15T12:37:34.903Z,16.70
2019-02-15T12:40:03.128Z,16.82
2019-02-15T12:42:31.290Z,16.17
2019-02-15T12:44:59.470Z,17.10
2019-02-15T12:47:27.618Z,17.27
2019-02-15T12:49:55.890Z,16.45
2019-02-15T12:52:24.326Z,16.60
2019-02-15T12:54:52.457Z,16.00
2019-02-15T12:57:20.610Z,15.33
2019-02-15T12:59:48.806Z,15.20
2019-02-15T13:02:17.112Z,15.40
2019-02-15T13:04:45.424Z,13.72
2019-02-15T13:07:13.709Z,14.85
2019-02-15T13:09:41.867Z,15.15
2019-02-15T13:12:10.022Z,14.60
2019-02-15T13:14:38.573Z,14.13
2019-02-15T13:17:06.752Z,14.95
2019-02-15T13:19:34.913Z,14.65
2019-02-15T13:22:03.448Z,14.87
2019-02-15T13:24:31.630Z,13.98
2019-02-15T13:26:59.808Z,14.95
2019-02-15T13:29:27.967Z,12.68
2019-02-15T13:31:56.111Z,13.53
2019-02-15T13:34:24.265Z,14.83
2019-02-15T13:36:52.493Z,14.70
2019-02-15T13:39:20.673Z,14.37
2019-02-15T13:41:48.814Z,14.07
2019-02-15T13:44:17.868Z,14.10
2019-02-15T13:46:46.107Z,13.22
2019-02-15T13:49:14.259Z,12.23
2019-02-15T13:51:42.477Z,13.32
2019-02-15T13:54:10.620Z,12.18
2019-02-15T13:56:40.543Z,13.15
2019-02-15T13:59:08.787Z,12.93
2019-02-15T14:01:36.953Z,14.15
2019-02-15T14:04:05.204Z,13.90
2019-02-15T14:06:33.565Z,13.28
2019-02-15T14:09:01.747Z,12.88
2019-02-15T14:11:29.927Z,13.48
2019-02-15T14:13:58.318Z,14.20
2019-02-15T14:16:26.506Z,14.55
2019-02-15T14:18:54.645Z,14.03
2019-02-15T14:21:23.048Z,14.78
2019-02-15T14:23:51.220Z,14.30
2019-02-15T14:26:19.370Z,16.35
2019-02-15T14:28:47.960Z,15.15
2019-02-15T14:31:16.118Z,15.72
2019-02-15T14:33:44.267Z,16.77
2019-02-15T14:36:12.466Z,16.33
2019-02-15T14:38:40.633Z,16.20
2019-02-15T14:41:11.813Z,16.70
2019-02-15T14:43:47.786Z,17.95
2019-02-15T14:46:13.348Z,16.00
2019-02-15T14:48:41.631Z,17.02
2019-02-15T14:51:11.148Z,15.23
2019-02-15T14:53:39.375Z,16.17
2019-02-15T14:56:07.602Z,16.15
2019-02-15T14:58:35.882Z,15.67
2019-02-15T15:01:04.041Z,15.67
2019-02-15T15:03:32.321Z,15.60
2019-02-15T15:06:00.586Z,16.60
2019-02-15T15:08:30.727Z,15.85
2019-02-15T15:10:58.605Z,16.35
2019-02-15T15:13:26.810Z,15.43
2019-02-15T15:15:54.948Z,16.13
2019-02-15T15:18:23.094Z,17.00
2019-02-15T15:20:51.246Z,17.80
2019-02-15T15:23:19.424Z,18.20
2019-02-15T15:25:47.618Z,17.53
2019-02-15T15:28:16.157Z,17.53
2019-02-15T15:30:44.286Z,17.47
2019-02-15T15:33:12.434Z,17.00
2019-02-15T15:35:40.648Z,16.50
2019-02-15T15:38:08.820Z,18.77
2019-02-15T15:40:36.999Z,18.30
2019-02-15T15:43:05.566Z,18.83
2019-02-15T15:45:33.714Z,19.37
2019-02-15T15:48:01.870Z,19.50
2019-02-15T15:50:30.158Z,19.07
2019-02-15T15:52:58.311Z,17.17
2019-02-15T15:55:26.442Z,17.47
2019-02-15T15:57:54.796Z,16.97
2019-02-15T16:00:22.993Z,16.47
2019-02-15T16:02:51.174Z,16.50
2019-02-15T16:05:19.377Z,15.00
2019-02-15T16:07:47.514Z,16.83
2019-02-15T16:10:15.764Z,15.72
2019-02-15T16:12:44.243Z,16.63
2019-02-15T16:15:12.922Z,16.27
2019-02-15T16:17:41.117Z,15.83
2019-02-15T16:20:10.148Z,15.80
2019-02-15T16:22:38.277Z,16.33
2019-02-15T16:25:07.198Z,15.50
2019-02-15T16:27:35.578Z,17.20
2019-02-15T16:30:04.580Z,16.90
2019-02-15T16:32:32.718Z,17.63
2019-02-15T16:35:00.931Z,18.37
2019-02-15T16:37:29.092Z,17.83
2019-02-15T16:39:57.231Z,16.83
2019-02-15T16:42:25.502Z,17.20
2019-02-15T16:44:53.646Z,16.93
2019-02-15T16:47:21.830Z,17.70
2019-02-15T16:49:50.155Z,16.30
2019-02-15T16:52:18.302Z,17.70
2019-02-15T16:54:46.454Z,17.43
2019-02-15T16:57:14.652Z,18.87
2019-02-15T16:59:42.828Z,18.17
2019-02-15T17:02:10.978Z,17.07
2019-02-15T17:04:39.236Z,17.27
2019-02-15T17:07:07.445Z,16.80
2019-02-15T17:09:36.419Z,16.77
2019-02-15T17:12:04.914Z,19.67
2019-02-15T17:14:33.054Z,18.33
2019-02-15T17:17:01.196Z,19.30
2019-02-15T17:19:29.512Z,19.27
2019-02-15T17:21:57.736Z,18.53
2019-02-15T17:24:25.881Z,19.30
2019-02-15T17:26:54.073Z,20.93
2019-02-15T17:29:22.256Z,20.23
2019-02-15T17:31:50.382Z,21.57
2019-02-15T17:34:18.926Z,23.80
2019-02-15T17:36:47.104Z,20.73
2019-02-15T17:39:15.296Z,21.67
2019-02-15T17:41:43.621Z,19.87
2019-02-15T17:44:11.814Z,22.93
2019-02-15T17:46:39.998Z,26.00
2019-02-15T17:49:08.193Z,24.23
2019-02-15T17:51:36.369Z,24.20
2019-02-15T17:54:04.522Z,22.63
2019-02-15T17:56:33.908Z,21.40
2019-02-15T17:59:02.094Z,21.40
2019-02-15T18:01:30.496Z,22.57
2019-02-15T18:03:58.918Z,22.47
2019-02-15T18:06:27.062Z,21.60
2019-02-15T18:08:55.222Z,20.80
2019-02-15T18:11:23.529Z,22.00
2019-02-15T18:13:51.707Z,21.73
2019-02-15T18:16:19.854Z,21.70
2019-02-15T18:18:48.022Z,22.43
2019-02-15T18:21:16.165Z,20.60
2019-02-15T18:23:44.344Z,20.70
2019-02-15T18:26:12.690Z,22.47
2019-02-15T18:28:40.866Z,21.37
2019-02-15T18:31:08.997Z,21.77
2019-02-15T18:33:37.378Z,20.73
2019-02-15T18:36:05.564Z,21.70
2019-02-15T18:38:33.705Z,21.13
2019-02-15T18:41:02.165Z,20.53
2019-02-15T18:43:30.297Z,21.10
2019-02-15T18:45:58.501Z,23.37
2019-02-15T18:48:26.799Z,21.43
2019-02-15T18:50:54.968Z,21.73
2019-02-15T18:53:23.098Z,21.77
2019-02-15T18:55:51.330Z,21.63
2019-02-15T18:58:19.513Z,22.67
2019-02-15T19:00:47.680Z,24.87
2019-02-15T19:03:15.971Z,24.43
2019-02-15T19:05:44.309Z,25.83
2019-02-15T19:08:12.438Z,23.50
2019-02-15T19:10:40.938Z,23.97
2019-02-15T19:13:09.086Z,25.67
2019-02-15T19:15:37.229Z,24.43
2019-02-15T19:18:05.626Z,22.70
2019-02-15T19:20:33.804Z,23.03
2019-02-15T19:23:01.949Z,22.90
2019-02-15T19:25:30.307Z,22.23
2019-02-15T19:27:58.491Z,20.93
2019-02-15T19:30:31.034Z,20.07
2019-02-15T19:32:59.158Z,21.30
2019-02-15T19:35:27.270Z,21.10
2019-02-15T19:37:55.420Z,20.93
2019-02-15T19:40:23.697Z,20.20
2019-02-15T19:42:53.547Z,19.27
2019-02-15T19:45:21.721Z,19.83
2019-02-15T19:47:50.269Z,19.40
2019-02-15T19:50:18.426Z,19.17
2019-02-15T19:52:47.587Z,19.87
2019-02-15T19:55:15.861Z,20.27
2019-02-15T19:57:44.001Z,20.07
2019-02-15T20:00:16.127Z,20.00
2019-02-15T20:02:44.382Z,20.93
2019-02-15T20:05:12.753Z,18.90
2019-02-15T20:07:40.887Z,19.23
2019-02-15T20:10:10.458Z,18.00
2019-02-15T20:12:38.607Z,19.13
2019-02-15T20:15:08.414Z,19.40
2019-02-15T20:17:36.670Z,19.50
2019-02-15T20:20:06.675Z,19.50
2019-02-15T20:22:34.809Z,20.37
2019-02-15T20:25:03.097Z,18.27
2019-02-15T20:27:31.287Z,19.03
2019-02-15T20:29:59.441Z,17.30
2019-02-15T20:32:27.597Z,18.60
2019-02-15T20:34:55.745Z,18.03
2019-02-15T20:37:23.878Z,17.80
2019-02-15T20:39:52.378Z,17.50
2019-02-15T20:42:20.625Z,18.23
2019-02-15T20:44:49.002Z,17.33
2019-02-15T20:47:17.448Z,17.23
2019-02-15T20:49:47.029Z,17.73
2019-02-15T20:52:15.166Z,17.57
2019-02-15T20:54:43.466Z,16.77
2019-02-15T20:57:11.934Z,17.10
2019-02-15T20:59:40.279Z,16.97
2019-02-15T21:02:08.532Z,16.93
2019-02-15T21:04:36.673Z,17.93
2019-02-15T21:07:04.955Z,18.00
2019-02-15T21:09:33.252Z,16.43
2019-02-15T21:12:01.473Z,17.70
2019-02-15T21:14:29.695Z,17.27
2019-02-15T21:16:57.991Z,18.07
2019-02-15T21:19:26.146Z,17.27
2019-02-15T21:21:54.299Z,17.87
2019-02-15T21:24:22.652Z,17.40
2019-02-15T21:26:50.786Z,18.83
2019-02-15T21:29:18.937Z,20.00
2019-02-15T21:31:47.112Z,18.23
2019-02-15T21:34:15.256Z,17.67
2019-02-15T21:36:43.449Z,19.43
2019-02-15T21:39:11.711Z,19.70
2019-02-15T21:41:39.900Z,19.47
2019-02-15T21:44:08.085Z,19.17
2019-02-15T21:46:36.333Z,17.23
2019-02-15T21:49:04.495Z,17.77
2019-02-15T21:51:32.756Z,18.13
2019-02-15T21:54:01.028Z,18.40
2019-02-15T21:56:29.201Z,18.93
2019-02-15T21:58:57.372Z,17.00
2019-02-15T22:01:25.842Z,17.80
2019-02-15T22:03:53.999Z,17.23
2019-02-15T22:06:22.254Z,17.97
2019-02-15T22:08:50.583Z,17.33
2019-02-15T22:11:18.726Z,16.37
2019-02-15T22:13:46.878Z,16.73
2019-02-15T22:16:15.047Z,16.93
2019-02-15T22:18:43.242Z,16.27
2019-02-15T22:21:11.459Z,16.20
2019-02-15T22:23:40.750Z,18.00
2019-02-15T22:26:08.950Z,17.33
2019-02-15T22:28:37.090Z,18.03
2019-02-15T22:31:05.342Z,17.57
2019-02-15T22:33:33.550Z,17.17
2019-02-15T22:36:01.708Z,17.10
2019-02-15T22:38:30.191Z,17.03
2019-02-15T22:41:02.872Z,16.73
2019-02-15T22:43:31.039Z,16.80
2019-02-15T22:45:59.240Z,18.00
2019-02-15T22:48:27.401Z,17.50
2019-02-15T22:50:55.585Z,17.07
2019-02-15T22:53:23.898Z,16.40
2019-02-15T22:55:52.034Z,16.97
2019-02-15T22:58:20.178Z,17.80
2019-02-15T23:00:54.320Z,16.07
2019-02-15T23:03:23.321Z,16.20
2019-02-15T23:05:51.583Z,16.73
2019-02-15T23:08:19.928Z,16.47
2019-02-15T23:10:48.217Z,18.13
2019-02-15T23:13:16.376Z,15.77
2019-02-15T23:15:44.581Z,15.93
2019-02-15T23:18:12.748Z,16.60
2019-02-15T23:20:45.104Z,16.33
2019-02-15T23:23:11.019Z,15.57
2019-02-15T23:25:39.178Z,16.17
2019-02-15T23:28:07.343Z,16.40
2019-02-15T23:30:35.519Z,16.50
2019-02-15T23:33:03.753Z,17.50
2019-02-15T23:35:32.023Z,16.37
2019-02-15T23:38:00.346Z,17.23
2019-02-15T23:40:28.477Z,16.47
2019-02-15T23:42:56.636Z,15.77
2019-02-15T23:45:24.805Z,17.63
2019-02-15T23:47:53.032Z,16.47
2019-02-15T23:50:21.172Z,16.83
2019-02-15T23:52:49.520Z,17.07
2019-02-15T23:55:17.671Z,16.33
2019-02-15T23:57:45.819Z,15.83
